sensor_id;sensor_type;location;lat;lon;timestamp;P1;durP1;ratioP1;P2;durP2;ratioP2
33802;SDS011;20110;53.120;5.786;2022-12-24T00:02:21;169.52;;;29.00;;
33802;SDS011;20110;53.120;5.786;2022-12-24T00:04:46;238.40;;;33.88;;
33802;SDS011;20110;53.120;5.786;2022-12-24T00:07:12;190.52;;;29.80;;
33802;SDS011;20110;53.120;5.786;2022-12-24T00:09:38;185.10;;;29.67;;
33802;SDS011;20110;53.120;5.786;2022-12-24T00:12:04;182.93;;;30.75;;
33802;SDS011;20110;53.120;5.786;2022-12-24T00:14:30;159.13;;;27.67;;
33802;SDS011;20110;53.120;5.786;2022-12-24T00:16:56;154.07;;;27.33;;
33802;SDS011;20110;53.120;5.786;2022-12-24T00:19:22;150.82;;;28.75;;
33802;SDS011;20110;53.120;5.786;2022-12-24T00:21:47;159.88;;;27.90;;
33802;SDS011;20110;53.120;5.786;2022-12-24T00:24:13;156.20;;;27.85;;
33802;SDS011;20110;53.120;5.786;2022-12-24T00:26:39;151.18;;;29.38;;
33802;SDS011;20110;53.120;5.786;2022-12-24T00:29:05;154.63;;;29.42;;
33802;SDS011;20110;53.120;5.786;2022-12-24T00:31:31;185.15;;;28.63;;
33802;SDS011;20110;53.120;5.786;2022-12-24T00:33:57;175.00;;;28.83;;
33802;SDS011;20110;53.120;5.786;2022-12-24T00:36:22;151.95;;;28.50;;
33802;SDS011;20110;53.120;5.786;2022-12-24T00:38:48;189.43;;;28.92;;
33802;SDS011;20110;53.120;5.786;2022-12-24T00:41:15;156.27;;;27.17;;
33802;SDS011;20110;53.120;5.786;2022-12-24T00:43:59;144.57;;;27.23;;
33802;SDS011;20110;53.120;5.786;2022-12-24T00:46:30;128.82;;;25.63;;
33802;SDS011;20110;53.120;5.786;2022-12-24T00:48:58;144.52;;;27.77;;
33802;SDS011;20110;53.120;5.786;2022-12-24T00:51:24;118.60;;;25.60;;
33802;SDS011;20110;53.120;5.786;2022-12-24T00:53:51;140.98;;;27.08;;
33802;SDS011;20110;53.120;5.786;2022-12-24T00:56:18;123.70;;;26.27;;
33802;SDS011;20110;53.120;5.786;2022-12-24T00:58:46;137.57;;;26.52;;
33802;SDS011;20110;53.120;5.786;2022-12-24T01:01:12;116.97;;;26.95;;
33802;SDS011;20110;53.120;5.786;2022-12-24T01:03:39;132.85;;;26.38;;
33802;SDS011;20110;53.120;5.786;2022-12-24T01:06:07;135.52;;;27.20;;
33802;SDS011;20110;53.120;5.786;2022-12-24T01:08:39;108.05;;;26.42;;
33802;SDS011;20110;53.120;5.786;2022-12-24T01:11:06;149.23;;;28.60;;
33802;SDS011;20110;53.120;5.786;2022-12-24T01:13:34;163.18;;;30.85;;
33802;SDS011;20110;53.120;5.786;2022-12-24T01:16:01;147.90;;;27.83;;
33802;SDS011;20110;53.120;5.786;2022-12-24T01:18:28;120.03;;;25.02;;
33802;SDS011;20110;53.120;5.786;2022-12-24T01:20:59;136.20;;;25.45;;
33802;SDS011;20110;53.120;5.786;2022-12-24T01:23:28;108.68;;;25.33;;
33802;SDS011;20110;53.120;5.786;2022-12-24T01:25:59;129.30;;;28.52;;
33802;SDS011;20110;53.120;5.786;2022-12-24T01:28:28;122.53;;;26.20;;
33802;SDS011;20110;53.120;5.786;2022-12-24T01:30:56;92.97;;;24.83;;
33802;SDS011;20110;53.120;5.786;2022-12-24T01:33:21;95.53;;;24.17;;
33802;SDS011;20110;53.120;5.786;2022-12-24T01:35:47;87.35;;;23.70;;
33802;SDS011;20110;53.120;5.786;2022-12-24T01:38:13;91.30;;;23.67;;
33802;SDS011;20110;53.120;5.786;2022-12-24T01:40:40;94.10;;;22.80;;
33802;SDS011;20110;53.120;5.786;2022-12-24T01:43:26;57.42;;;21.45;;
33802;SDS011;20110;53.120;5.786;2022-12-24T01:45:57;87.65;;;24.67;;
33802;SDS011;20110;53.120;5.786;2022-12-24T01:53:45;65.38;;;21.15;;
33802;SDS011;20110;53.120;5.786;2022-12-24T01:56:18;36.03;;;15.80;;
33802;SDS011;20110;53.120;5.786;2022-12-24T01:58:47;41.22;;;18.23;;
33802;SDS011;20110;53.120;5.786;2022-12-24T02:01:21;48.30;;;19.80;;
33802;SDS011;20110;53.120;5.786;2022-12-24T02:03:47;38.35;;;17.40;;
33802;SDS011;20110;53.120;5.786;2022-12-24T02:06:14;42.45;;;17.88;;
33802;SDS011;20110;53.120;5.786;2022-12-24T02:08:44;43.35;;;16.45;;
33802;SDS011;20110;53.120;5.786;2022-12-24T02:11:12;39.85;;;17.90;;
33802;SDS011;20110;53.120;5.786;2022-12-24T02:13:45;24.20;;;11.82;;
33802;SDS011;20110;53.120;5.786;2022-12-24T02:32:04;23.27;;;10.18;;
33802;SDS011;20110;53.120;5.786;2022-12-24T02:35:00;20.73;;;7.78;;
33802;SDS011;20110;53.120;5.786;2022-12-24T02:38:23;41.75;;;9.82;;
33802;SDS011;20110;53.120;5.786;2022-12-24T02:40:44;29.42;;;8.45;;
33802;SDS011;20110;53.120;5.786;2022-12-24T02:43:21;33.22;;;9.00;;
33802;SDS011;20110;53.120;5.786;2022-12-24T02:45:58;18.98;;;5.47;;
33802;SDS011;20110;53.120;5.786;2022-12-24T02:48:32;23.88;;;6.60;;
33802;SDS011;20110;53.120;5.786;2022-12-24T02:51:06;21.13;;;5.97;;
33802;SDS011;20110;53.120;5.786;2022-12-24T02:53:34;16.27;;;5.82;;
33802;SDS011;20110;53.120;5.786;2022-12-24T02:56:06;20.63;;;7.10;;
33802;SDS011;20110;53.120;5.786;2022-12-24T03:04:36;27.08;;;6.55;;
33802;SDS011;20110;53.120;5.786;2022-12-24T03:07:11;23.00;;;6.72;;
33802;SDS011;20110;53.120;5.786;2022-12-24T03:12:58;35.67;;;5.80;;
33802;SDS011;20110;53.120;5.786;2022-12-24T03:15:32;35.95;;;5.63;;
33802;SDS011;20110;53.120;5.786;2022-12-24T03:17:59;24.13;;;4.88;;
33802;SDS011;20110;53.120;5.786;2022-12-24T03:20:34;43.88;;;6.32;;
33802;SDS011;20110;53.120;5.786;2022-12-24T03:23:04;53.05;;;6.78;;
33802;SDS011;20110;53.120;5.786;2022-12-24T03:25:31;14.68;;;4.57;;
33802;SDS011;20110;53.120;5.786;2022-12-24T03:28:00;31.40;;;4.93;;
33802;SDS011;20110;53.120;5.786;2022-12-24T03:30:30;39.65;;;6.78;;
33802;SDS011;20110;53.120;5.786;2022-12-24T03:32:57;29.92;;;6.22;;
33802;SDS011;20110;53.120;5.786;2022-12-24T03:35:23;30.20;;;4.95;;
33802;SDS011;20110;53.120;5.786;2022-12-24T03:37:49;34.38;;;5.07;;
33802;SDS011;20110;53.120;5.786;2022-12-24T03:40:15;27.75;;;5.10;;
33802;SDS011;20110;53.120;5.786;2022-12-24T03:42:41;52.25;;;6.15;;
33802;SDS011;20110;53.120;5.786;2022-12-24T03:45:07;40.05;;;5.95;;
33802;SDS011;20110;53.120;5.786;2022-12-24T03:47:34;38.88;;;6.38;;
33802;SDS011;20110;53.120;5.786;2022-12-24T03:50:00;50.05;;;6.88;;
33802;SDS011;20110;53.120;5.786;2022-12-24T03:52:26;56.92;;;7.03;;
33802;SDS011;20110;53.120;5.786;2022-12-24T03:54:52;48.65;;;6.30;;
33802;SDS011;20110;53.120;5.786;2022-12-24T03:57:18;42.28;;;6.55;;
33802;SDS011;20110;53.120;5.786;2022-12-24T03:59:43;27.55;;;4.25;;
33802;SDS011;20110;53.120;5.786;2022-12-24T04:02:09;51.80;;;6.60;;
33802;SDS011;20110;53.120;5.786;2022-12-24T04:04:35;73.40;;;6.57;;
33802;SDS011;20110;53.120;5.786;2022-12-24T04:07:02;60.50;;;6.75;;
33802;SDS011;20110;53.120;5.786;2022-12-24T04:09:29;65.25;;;7.53;;
33802;SDS011;20110;53.120;5.786;2022-12-24T04:11:55;52.90;;;6.57;;
33802;SDS011;20110;53.120;5.786;2022-12-24T04:14:21;54.45;;;7.30;;
33802;SDS011;20110;53.120;5.786;2022-12-24T04:16:47;38.80;;;5.88;;
33802;SDS011;20110;53.120;5.786;2022-12-24T04:19:12;56.58;;;7.28;;
33802;SDS011;20110;53.120;5.786;2022-12-24T04:21:38;52.95;;;7.32;;
33802;SDS011;20110;53.120;5.786;2022-12-24T04:24:04;53.67;;;7.40;;
33802;SDS011;20110;53.120;5.786;2022-12-24T04:26:30;53.97;;;7.35;;
33802;SDS011;20110;53.120;5.786;2022-12-24T04:28:56;30.50;;;6.10;;
33802;SDS011;20110;53.120;5.786;2022-12-24T04:31:22;72.85;;;7.80;;
33802;SDS011;20110;53.120;5.786;2022-12-24T04:33:49;60.80;;;7.00;;
33802;SDS011;20110;53.120;5.786;2022-12-24T04:36:17;53.58;;;6.13;;
33802;SDS011;20110;53.120;5.786;2022-12-24T04:38:44;43.03;;;5.55;;
33802;SDS011;20110;53.120;5.786;2022-12-24T04:41:13;72.30;;;6.82;;
33802;SDS011;20110;53.120;5.786;2022-12-24T04:43:45;55.42;;;7.22;;
33802;SDS011;20110;53.120;5.786;2022-12-24T04:46:15;80.90;;;7.53;;
33802;SDS011;20110;53.120;5.786;2022-12-24T04:48:45;55.65;;;6.97;;
33802;SDS011;20110;53.120;5.786;2022-12-24T04:51:13;64.25;;;8.57;;
33802;SDS011;20110;53.120;5.786;2022-12-24T04:53:41;69.82;;;7.00;;
33802;SDS011;20110;53.120;5.786;2022-12-24T04:56:11;52.25;;;6.13;;
33802;SDS011;20110;53.120;5.786;2022-12-24T04:58:40;34.03;;;5.75;;
33802;SDS011;20110;53.120;5.786;2022-12-24T05:01:07;62.60;;;7.97;;
33802;SDS011;20110;53.120;5.786;2022-12-24T05:03:39;41.05;;;6.25;;
33802;SDS011;20110;53.120;5.786;2022-12-24T05:06:06;44.85;;;7.30;;
33802;SDS011;20110;53.120;5.786;2022-12-24T05:08:36;46.08;;;6.30;;
33802;SDS011;20110;53.120;5.786;2022-12-24T05:11:03;67.68;;;7.22;;
33802;SDS011;20110;53.120;5.786;2022-12-24T05:13:30;49.53;;;7.45;;
33802;SDS011;20110;53.120;5.786;2022-12-24T05:15:57;67.55;;;8.32;;
33802;SDS011;20110;53.120;5.786;2022-12-24T05:18:23;45.60;;;5.78;;
33802;SDS011;20110;53.120;5.786;2022-12-24T05:20:49;58.85;;;6.22;;
33802;SDS011;20110;53.120;5.786;2022-12-24T05:23:16;37.40;;;6.15;;
33802;SDS011;20110;53.120;5.786;2022-12-24T05:26:04;37.22;;;4.93;;
33802;SDS011;20110;53.120;5.786;2022-12-24T05:28:51;82.35;;;7.97;;
33802;SDS011;20110;53.120;5.786;2022-12-24T05:31:21;43.30;;;6.47;;
33802;SDS011;20110;53.120;5.786;2022-12-24T05:33:49;17.77;;;5.18;;
33802;SDS011;20110;53.120;5.786;2022-12-24T05:36:15;23.73;;;4.35;;
33802;SDS011;20110;53.120;5.786;2022-12-24T05:38:41;59.03;;;6.15;;
33802;SDS011;20110;53.120;5.786;2022-12-24T05:41:07;38.58;;;5.28;;
33802;SDS011;20110;53.120;5.786;2022-12-24T05:43:35;42.78;;;6.32;;
33802;SDS011;20110;53.120;5.786;2022-12-24T05:46:03;53.92;;;6.70;;
33802;SDS011;20110;53.120;5.786;2022-12-24T05:48:32;56.92;;;7.53;;
33802;SDS011;20110;53.120;5.786;2022-12-24T05:50:58;42.38;;;5.28;;
33802;SDS011;20110;53.120;5.786;2022-12-24T05:53:27;39.17;;;5.43;;
33802;SDS011;20110;53.120;5.786;2022-12-24T05:55:53;53.75;;;6.03;;
33802;SDS011;20110;53.120;5.786;2022-12-24T05:58:18;38.67;;;5.32;;
33802;SDS011;20110;53.120;5.786;2022-12-24T06:00:44;50.80;;;7.05;;
33802;SDS011;20110;53.120;5.786;2022-12-24T06:03:10;69.20;;;6.05;;
33802;SDS011;20110;53.120;5.786;2022-12-24T06:05:36;37.40;;;6.65;;
33802;SDS011;20110;53.120;5.786;2022-12-24T06:08:05;44.95;;;5.65;;
33802;SDS011;20110;53.120;5.786;2022-12-24T06:10:31;52.13;;;6.28;;
33802;SDS011;20110;53.120;5.786;2022-12-24T06:12:56;39.42;;;5.60;;
33802;SDS011;20110;53.120;5.786;2022-12-24T06:15:22;59.92;;;7.15;;
33802;SDS011;20110;53.120;5.786;2022-12-24T06:17:48;41.58;;;5.53;;
33802;SDS011;20110;53.120;5.786;2022-12-24T06:20:14;70.78;;;6.10;;
33802;SDS011;20110;53.120;5.786;2022-12-24T06:22:39;42.92;;;6.25;;
33802;SDS011;20110;53.120;5.786;2022-12-24T06:25:05;55.55;;;5.28;;
33802;SDS011;20110;53.120;5.786;2022-12-24T06:27:32;49.72;;;6.80;;
33802;SDS011;20110;53.120;5.786;2022-12-24T06:29:58;28.10;;;5.20;;
33802;SDS011;20110;53.120;5.786;2022-12-24T06:32:23;64.45;;;6.60;;
33802;SDS011;20110;53.120;5.786;2022-12-24T06:34:49;72.90;;;7.00;;
33802;SDS011;20110;53.120;5.786;2022-12-24T06:37:15;53.67;;;6.20;;
33802;SDS011;20110;53.120;5.786;2022-12-24T06:39:44;51.95;;;6.68;;
33802;SDS011;20110;53.120;5.786;2022-12-24T06:42:11;40.95;;;6.43;;
33802;SDS011;20110;53.120;5.786;2022-12-24T06:44:37;58.08;;;6.82;;
33802;SDS011;20110;53.120;5.786;2022-12-24T06:47:03;40.75;;;5.70;;
33802;SDS011;20110;53.120;5.786;2022-12-24T06:49:29;52.13;;;6.75;;
33802;SDS011;20110;53.120;5.786;2022-12-24T06:51:55;30.02;;;5.18;;
33802;SDS011;20110;53.120;5.786;2022-12-24T06:54:21;55.95;;;8.15;;
33802;SDS011;20110;53.120;5.786;2022-12-24T06:56:46;23.83;;;4.13;;
33802;SDS011;20110;53.120;5.786;2022-12-24T06:59:12;43.35;;;6.30;;
33802;SDS011;20110;53.120;5.786;2022-12-24T07:01:38;40.85;;;5.07;;
33802;SDS011;20110;53.120;5.786;2022-12-24T07:04:04;38.17;;;5.88;;
33802;SDS011;20110;53.120;5.786;2022-12-24T07:06:30;19.20;;;4.38;;
33802;SDS011;20110;53.120;5.786;2022-12-24T07:08:55;32.25;;;5.55;;
33802;SDS011;20110;53.120;5.786;2022-12-24T07:11:25;37.35;;;5.35;;
33802;SDS011;20110;53.120;5.786;2022-12-24T07:13:51;42.40;;;5.75;;
33802;SDS011;20110;53.120;5.786;2022-12-24T07:16:17;32.40;;;5.35;;
33802;SDS011;20110;53.120;5.786;2022-12-24T07:18:43;24.23;;;4.65;;
33802;SDS011;20110;53.120;5.786;2022-12-24T07:21:09;60.38;;;6.68;;
33802;SDS011;20110;53.120;5.786;2022-12-24T07:23:35;44.55;;;5.10;;
33802;SDS011;20110;53.120;5.786;2022-12-24T07:26:01;33.65;;;4.82;;
33802;SDS011;20110;53.120;5.786;2022-12-24T07:28:29;40.15;;;4.63;;
33802;SDS011;20110;53.120;5.786;2022-12-24T07:30:56;30.70;;;4.25;;
33802;SDS011;20110;53.120;5.786;2022-12-24T07:33:24;47.53;;;5.93;;
33802;SDS011;20110;53.120;5.786;2022-12-24T07:36:00;58.38;;;6.38;;
33802;SDS011;20110;53.120;5.786;2022-12-24T07:38:30;41.28;;;6.18;;
33802;SDS011;20110;53.120;5.786;2022-12-24T07:40:57;28.58;;;5.40;;
33802;SDS011;20110;53.120;5.786;2022-12-24T07:43:23;26.58;;;5.80;;
33802;SDS011;20110;53.120;5.786;2022-12-24T07:45:53;42.60;;;5.55;;
33802;SDS011;20110;53.120;5.786;2022-12-24T07:48:21;44.42;;;5.05;;
33802;SDS011;20110;53.120;5.786;2022-12-24T07:50:48;38.65;;;5.78;;
33802;SDS011;20110;53.120;5.786;2022-12-24T07:53:15;47.65;;;6.13;;
33802;SDS011;20110;53.120;5.786;2022-12-24T07:55:41;51.60;;;6.00;;
33802;SDS011;20110;53.120;5.786;2022-12-24T07:58:07;35.88;;;5.90;;
33802;SDS011;20110;53.120;5.786;2022-12-24T08:00:33;26.92;;;4.70;;
33802;SDS011;20110;53.120;5.786;2022-12-24T08:02:59;55.15;;;7.20;;
33802;SDS011;20110;53.120;5.786;2022-12-24T08:05:25;32.50;;;6.40;;
33802;SDS011;20110;53.120;5.786;2022-12-24T08:07:52;46.17;;;5.93;;
33802;SDS011;20110;53.120;5.786;2022-12-24T08:10:18;38.90;;;5.68;;
33802;SDS011;20110;53.120;5.786;2022-12-24T08:12:44;26.45;;;5.25;;
33802;SDS011;20110;53.120;5.786;2022-12-24T08:15:12;36.03;;;5.10;;
33802;SDS011;20110;53.120;5.786;2022-12-24T08:17:38;49.72;;;5.85;;
33802;SDS011;20110;53.120;5.786;2022-12-24T08:20:04;27.58;;;4.50;;
33802;SDS011;20110;53.120;5.786;2022-12-24T08:22:30;28.70;;;4.38;;
33802;SDS011;20110;53.120;5.786;2022-12-24T08:24:56;55.00;;;6.93;;
33802;SDS011;20110;53.120;5.786;2022-12-24T08:27:22;38.85;;;4.97;;
33802;SDS011;20110;53.120;5.786;2022-12-24T08:29:48;37.50;;;5.20;;
33802;SDS011;20110;53.120;5.786;2022-12-24T08:32:14;37.63;;;5.63;;
33802;SDS011;20110;53.120;5.786;2022-12-24T08:34:40;28.30;;;5.15;;
33802;SDS011;20110;53.120;5.786;2022-12-24T08:37:05;18.77;;;4.15;;
33802;SDS011;20110;53.120;5.786;2022-12-24T08:39:31;26.10;;;5.72;;
33802;SDS011;20110;53.120;5.786;2022-12-24T08:41:57;41.13;;;6.65;;
33802;SDS011;20110;53.120;5.786;2022-12-24T08:44:23;14.32;;;2.58;;
33802;SDS011;20110;53.120;5.786;2022-12-24T08:46:48;53.40;;;8.25;;
33802;SDS011;20110;53.120;5.786;2022-12-24T08:49:14;55.15;;;10.27;;
33802;SDS011;20110;53.120;5.786;2022-12-24T08:51:40;31.45;;;7.43;;
33802;SDS011;20110;53.120;5.786;2022-12-24T08:54:06;23.95;;;4.15;;
33802;SDS011;20110;53.120;5.786;2022-12-24T08:56:32;33.17;;;7.15;;
33802;SDS011;20110;53.120;5.786;2022-12-24T08:58:58;36.58;;;5.97;;
33802;SDS011;20110;53.120;5.786;2022-12-24T09:01:25;26.83;;;5.90;;
33802;SDS011;20110;53.120;5.786;2022-12-24T09:03:51;38.28;;;5.72;;
33802;SDS011;20110;53.120;5.786;2022-12-24T09:06:16;44.97;;;6.25;;
33802;SDS011;20110;53.120;5.786;2022-12-24T09:08:42;38.03;;;5.30;;
33802;SDS011;20110;53.120;5.786;2022-12-24T09:11:13;38.63;;;5.00;;
33802;SDS011;20110;53.120;5.786;2022-12-24T09:13:41;42.63;;;5.90;;
33802;SDS011;20110;53.120;5.786;2022-12-24T09:16:08;24.80;;;5.70;;
33802;SDS011;20110;53.120;5.786;2022-12-24T09:18:35;45.10;;;6.45;;
33802;SDS011;20110;53.120;5.786;2022-12-24T09:21:04;38.92;;;6.10;;
33802;SDS011;20110;53.120;5.786;2022-12-24T09:23:44;25.27;;;5.45;;
33802;SDS011;20110;53.120;5.786;2022-12-24T09:26:16;55.58;;;7.53;;
33802;SDS011;20110;53.120;5.786;2022-12-24T09:28:45;39.90;;;6.75;;
33802;SDS011;20110;53.120;5.786;2022-12-24T09:31:12;37.92;;;6.30;;
33802;SDS011;20110;53.120;5.786;2022-12-24T09:33:39;35.05;;;5.60;;
33802;SDS011;20110;53.120;5.786;2022-12-24T09:36:08;32.28;;;4.95;;
33802;SDS011;20110;53.120;5.786;2022-12-24T09:38:34;42.13;;;6.35;;
33802;SDS011;20110;53.120;5.786;2022-12-24T09:41:10;51.17;;;7.68;;
33802;SDS011;20110;53.120;5.786;2022-12-24T09:44:30;24.98;;;4.97;;
33802;SDS011;20110;53.120;5.786;2022-12-24T09:47:49;30.00;;;5.22;;
33802;SDS011;20110;53.120;5.786;2022-12-24T09:50:25;53.70;;;6.22;;
33802;SDS011;20110;53.120;5.786;2022-12-24T09:53:24;37.35;;;6.80;;
33802;SDS011;20110;53.120;5.786;2022-12-24T09:56:26;45.28;;;5.80;;
33802;SDS011;20110;53.120;5.786;2022-12-24T09:58:59;31.33;;;6.47;;
33802;SDS011;20110;53.120;5.786;2022-12-24T10:01:31;43.70;;;6.97;;
33802;SDS011;20110;53.120;5.786;2022-12-24T10:04:00;22.13;;;5.60;;
33802;SDS011;20110;53.120;5.786;2022-12-24T10:07:23;37.50;;;5.70;;
33802;SDS011;20110;53.120;5.786;2022-12-24T10:12:21;44.05;;;5.28;;
33802;SDS011;20110;53.120;5.786;2022-12-24T10:15:57;32.03;;;5.82;;
33802;SDS011;20110;53.120;5.786;2022-12-24T10:19:13;29.50;;;4.82;;
33802;SDS011;20110;53.120;5.786;2022-12-24T10:22:14;30.23;;;6.88;;
33802;SDS011;20110;53.120;5.786;2022-12-24T10:25:30;25.02;;;5.15;;
33802;SDS011;20110;53.120;5.786;2022-12-24T10:28:35;8.18;;;2.42;;
33802;SDS011;20110;53.120;5.786;2022-12-24T10:31:06;34.20;;;5.55;;
33802;SDS011;20110;53.120;5.786;2022-12-24T10:33:41;39.10;;;3.53;;
33802;SDS011;20110;53.120;5.786;2022-12-24T10:36:19;19.95;;;3.25;;
33802;SDS011;20110;53.120;5.786;2022-12-24T10:38:51;45.15;;;5.43;;
33802;SDS011;20110;53.120;5.786;2022-12-24T10:41:17;34.17;;;6.75;;
33802;SDS011;20110;53.120;5.786;2022-12-24T10:43:44;19.67;;;4.45;;
33802;SDS011;20110;53.120;5.786;2022-12-24T10:46:20;33.30;;;5.05;;
33802;SDS011;20110;53.120;5.786;2022-12-24T10:49:02;27.13;;;5.25;;
33802;SDS011;20110;53.120;5.786;2022-12-24T10:54:27;49.58;;;5.63;;
33802;SDS011;20110;53.120;5.786;2022-12-24T10:56:59;26.80;;;3.45;;
33802;SDS011;20110;53.120;5.786;2022-12-24T11:02:29;38.53;;;5.13;;
33802;SDS011;20110;53.120;5.786;2022-12-24T11:05:04;25.20;;;4.28;;
33802;SDS011;20110;53.120;5.786;2022-12-24T11:10:41;39.13;;;4.88;;
33802;SDS011;20110;53.120;5.786;2022-12-24T11:18:29;32.10;;;4.70;;
33802;SDS011;20110;53.120;5.786;2022-12-24T11:20:59;23.63;;;5.18;;
33802;SDS011;20110;53.120;5.786;2022-12-24T11:23:26;32.47;;;4.40;;
33802;SDS011;20110;53.120;5.786;2022-12-24T11:25:53;26.35;;;4.15;;
33802;SDS011;20110;53.120;5.786;2022-12-24T11:28:23;34.63;;;5.20;;
33802;SDS011;20110;53.120;5.786;2022-12-24T11:30:58;41.22;;;5.10;;
33802;SDS011;20110;53.120;5.786;2022-12-24T11:33:24;28.45;;;4.88;;
33802;SDS011;20110;53.120;5.786;2022-12-24T11:35:52;36.42;;;5.45;;
33802;SDS011;20110;53.120;5.786;2022-12-24T11:38:27;22.70;;;3.92;;
33802;SDS011;20110;53.120;5.786;2022-12-24T11:40:58;91.45;;;7.22;;
33802;SDS011;20110;53.120;5.786;2022-12-24T11:43:34;36.88;;;5.60;;
33802;SDS011;20110;53.120;5.786;2022-12-24T11:46:56;24.42;;;4.18;;
33802;SDS011;20110;53.120;5.786;2022-12-24T11:49:12;14.05;;;3.35;;
33802;SDS011;20110;53.120;5.786;2022-12-24T11:57:42;14.88;;;3.40;;
33802;SDS011;20110;53.120;5.786;2022-12-24T12:00:25;26.98;;;5.53;;
33802;SDS011;20110;53.120;5.786;2022-12-24T12:02:53;17.67;;;3.50;;
33802;SDS011;20110;53.120;5.786;2022-12-24T12:05:30;31.35;;;4.60;;
33802;SDS011;20110;53.120;5.786;2022-12-24T12:08:09;36.35;;;5.80;;
33802;SDS011;20110;53.120;5.786;2022-12-24T12:10:44;28.85;;;5.45;;
33802;SDS011;20110;53.120;5.786;2022-12-24T12:13:14;27.98;;;5.22;;
33802;SDS011;20110;53.120;5.786;2022-12-24T12:15:57;35.25;;;6.03;;
33802;SDS011;20110;53.120;5.786;2022-12-24T12:18:53;37.65;;;6.55;;
33802;SDS011;20110;53.120;5.786;2022-12-24T12:21:36;40.15;;;5.97;;
33802;SDS011;20110;53.120;5.786;2022-12-24T12:24:12;33.80;;;6.43;;
33802;SDS011;20110;53.120;5.786;2022-12-24T12:27:03;14.75;;;4.50;;
33802;SDS011;20110;53.120;5.786;2022-12-24T12:30:17;27.85;;;4.68;;
33802;SDS011;20110;53.120;5.786;2022-12-24T12:35:37;42.13;;;5.13;;
33802;SDS011;20110;53.120;5.786;2022-12-24T12:38:21;24.30;;;4.32;;
33802;SDS011;20110;53.120;5.786;2022-12-24T12:41:15;16.08;;;3.60;;
33802;SDS011;20110;53.120;5.786;2022-12-24T12:50:30;19.88;;;3.40;;
33802;SDS011;20110;53.120;5.786;2022-12-24T12:58:51;19.55;;;3.88;;
33802;SDS011;20110;53.120;5.786;2022-12-24T13:07:31;13.82;;;2.90;;
33802;SDS011;20110;53.120;5.786;2022-12-24T13:10:17;25.08;;;3.70;;
33802;SDS011;20110;53.120;5.786;2022-12-24T13:21:42;24.17;;;4.25;;
33802;SDS011;20110;53.120;5.786;2022-12-24T13:37:40;23.38;;;3.70;;
33802;SDS011;20110;53.120;5.786;2022-12-24T13:47:55;24.10;;;3.88;;
33802;SDS011;20110;53.120;5.786;2022-12-24T13:50:50;18.17;;;4.07;;
33802;SDS011;20110;53.120;5.786;2022-12-24T13:53:33;18.92;;;4.30;;
33802;SDS011;20110;53.120;5.786;2022-12-24T13:58:41;10.32;;;3.85;;
33802;SDS011;20110;53.120;5.786;2022-12-24T14:01:16;18.63;;;4.60;;
33802;SDS011;20110;53.120;5.786;2022-12-24T14:03:51;26.70;;;5.82;;
33802;SDS011;20110;53.120;5.786;2022-12-24T14:09:06;36.35;;;9.00;;
33802;SDS011;20110;53.120;5.786;2022-12-24T14:14:31;21.73;;;4.18;;
33802;SDS011;20110;53.120;5.786;2022-12-24T14:19:45;24.30;;;5.20;;
33802;SDS011;20110;53.120;5.786;2022-12-24T14:22:18;21.63;;;4.13;;
33802;SDS011;20110;53.120;5.786;2022-12-24T14:24:58;19.42;;;4.82;;
33802;SDS011;20110;53.120;5.786;2022-12-24T14:27:32;24.55;;;5.45;;
33802;SDS011;20110;53.120;5.786;2022-12-24T14:30:07;33.38;;;5.03;;
33802;SDS011;20110;53.120;5.786;2022-12-24T14:32:52;23.25;;;4.93;;
33802;SDS011;20110;53.120;5.786;2022-12-24T14:35:26;23.17;;;3.78;;
33802;SDS011;20110;53.120;5.786;2022-12-24T14:38:00;24.98;;;3.78;;
33802;SDS011;20110;53.120;5.786;2022-12-24T14:41:02;28.65;;;5.13;;
33802;SDS011;20110;53.120;5.786;2022-12-24T14:44:13;26.05;;;5.13;;
33802;SDS011;20110;53.120;5.786;2022-12-24T14:49:52;26.60;;;5.20;;
33802;SDS011;20110;53.120;5.786;2022-12-24T14:55:49;27.23;;;3.97;;
33802;SDS011;20110;53.120;5.786;2022-12-24T15:00:54;28.17;;;4.90;;
33802;SDS011;20110;53.120;5.786;2022-12-24T15:03:31;20.60;;;3.53;;
33802;SDS011;20110;53.120;5.786;2022-12-24T15:06:04;33.25;;;5.15;;
33802;SDS011;20110;53.120;5.786;2022-12-24T15:08:46;36.38;;;5.20;;
33802;SDS011;20110;53.120;5.786;2022-12-24T15:11:15;24.08;;;4.00;;
33802;SDS011;20110;53.120;5.786;2022-12-24T15:13:47;39.10;;;4.53;;
33802;SDS011;20110;53.120;5.786;2022-12-24T15:16:27;28.33;;;4.00;;
33802;SDS011;20110;53.120;5.786;2022-12-24T15:19:02;33.72;;;4.75;;
33802;SDS011;20110;53.120;5.786;2022-12-24T15:21:36;35.47;;;5.03;;
33802;SDS011;20110;53.120;5.786;2022-12-24T15:24:23;18.95;;;4.15;;
33802;SDS011;20110;53.120;5.786;2022-12-24T15:26:53;28.67;;;4.88;;
33802;SDS011;20110;53.120;5.786;2022-12-24T15:29:26;22.77;;;4.68;;
33802;SDS011;20110;53.120;5.786;2022-12-24T15:32:02;34.38;;;6.03;;
33802;SDS011;20110;53.120;5.786;2022-12-24T15:34:34;43.08;;;5.65;;
33802;SDS011;20110;53.120;5.786;2022-12-24T15:37:03;22.23;;;4.80;;
33802;SDS011;20110;53.120;5.786;2022-12-24T15:39:31;28.45;;;5.30;;
33802;SDS011;20110;53.120;5.786;2022-12-24T15:41:58;31.67;;;6.43;;
33802;SDS011;20110;53.120;5.786;2022-12-24T15:47:58;30.70;;;4.07;;
33802;SDS011;20110;53.120;5.786;2022-12-24T15:50:35;28.17;;;4.53;;
33802;SDS011;20110;53.120;5.786;2022-12-24T15:53:16;28.60;;;4.72;;
33802;SDS011;20110;53.120;5.786;2022-12-24T15:56:00;24.70;;;4.65;;
33802;SDS011;20110;53.120;5.786;2022-12-24T15:58:32;34.40;;;5.00;;
33802;SDS011;20110;53.120;5.786;2022-12-24T16:03:33;28.40;;;4.75;;
33802;SDS011;20110;53.120;5.786;2022-12-24T16:06:06;39.38;;;5.03;;
33802;SDS011;20110;53.120;5.786;2022-12-24T16:08:35;18.15;;;4.90;;
33802;SDS011;20110;53.120;5.786;2022-12-24T16:13:30;32.03;;;7.78;;
33802;SDS011;20110;53.120;5.786;2022-12-24T16:16:07;24.23;;;4.68;;
33802;SDS011;20110;53.120;5.786;2022-12-24T16:18:39;18.75;;;5.18;;
33802;SDS011;20110;53.120;5.786;2022-12-24T16:21:18;35.70;;;5.78;;
33802;SDS011;20110;53.120;5.786;2022-12-24T16:24:20;32.78;;;5.30;;
33802;SDS011;20110;53.120;5.786;2022-12-24T16:26:47;30.70;;;7.40;;
33802;SDS011;20110;53.120;5.786;2022-12-24T16:29:14;38.63;;;5.93;;
33802;SDS011;20110;53.120;5.786;2022-12-24T16:34:23;32.17;;;6.10;;
33802;SDS011;20110;53.120;5.786;2022-12-24T16:36:52;35.67;;;6.65;;
33802;SDS011;20110;53.120;5.786;2022-12-24T16:39:20;31.05;;;5.70;;
33802;SDS011;20110;53.120;5.786;2022-12-24T16:44:45;39.55;;;7.13;;
33802;SDS011;20110;53.120;5.786;2022-12-24T16:47:13;28.33;;;6.70;;
33802;SDS011;20110;53.120;5.786;2022-12-24T16:49:46;46.35;;;6.60;;
33802;SDS011;20110;53.120;5.786;2022-12-24T16:52:14;38.83;;;6.15;;
33802;SDS011;20110;53.120;5.786;2022-12-24T16:54:47;59.20;;;6.95;;
33802;SDS011;20110;53.120;5.786;2022-12-24T16:57:14;40.50;;;5.82;;
33802;SDS011;20110;53.120;5.786;2022-12-24T16:59:40;35.20;;;6.85;;
33802;SDS011;20110;53.120;5.786;2022-12-24T17:02:06;51.80;;;6.57;;
33802;SDS011;20110;53.120;5.786;2022-12-24T17:04:37;45.85;;;6.30;;
33802;SDS011;20110;53.120;5.786;2022-12-24T17:07:03;43.53;;;6.68;;
33802;SDS011;20110;53.120;5.786;2022-12-24T17:09:30;42.90;;;6.88;;
33802;SDS011;20110;53.120;5.786;2022-12-24T17:11:56;30.52;;;5.80;;
33802;SDS011;20110;53.120;5.786;2022-12-24T17:14:22;32.10;;;5.93;;
33802;SDS011;20110;53.120;5.786;2022-12-24T17:16:49;45.63;;;6.80;;